createdAt,value
2019-02-26T01:03:59.987Z,5.30
2019-02-26T01:09:03.644Z,4.93
2019-02-26T01:14:02.741Z,4.93
2019-02-26T01:19:04.081Z,5.27
2019-02-26T01:24:06.468Z,4.70
2019-02-26T01:29:06.842Z,5.27
2019-02-26T02:31:10.737Z,3.97
2019-02-26T02:36:14.757Z,3.70
2019-02-26T02:41:13.413Z,3.10
2019-02-26T02:46:14.738Z,3.37
2019-02-26T02:51:16.828Z,3.63
2019-02-26T02:56:18.880Z,3.00
2019-02-26T04:04:43.014Z,3.63
2019-02-26T04:09:46.658Z,3.47
2019-02-26T04:14:45.724Z,3.10
2019-02-26T04:19:47.116Z,3.30
2019-02-26T04:24:50.028Z,2.90
2019-02-26T04:29:49.834Z,3.20
2019-02-26T05:31:52.386Z,3.30
2019-02-26T05:36:53.673Z,4.07
2019-02-26T05:41:58.937Z,4.23
2019-02-26T05:46:58.869Z,3.40
2019-02-26T05:52:01.463Z,2.70
2019-02-26T05:57:01.851Z,3.23
2019-02-26T07:05:24.610Z,4.17
2019-02-26T07:10:26.730Z,4.00
2019-02-26T07:15:28.733Z,3.63
2019-02-26T07:20:34.153Z,3.73
2019-02-26T07:25:31.289Z,3.83
2019-02-26T08:33:54.128Z,2.60
2019-02-26T08:38:57.089Z,2.60
2019-02-26T08:43:58.879Z,2.77
2019-02-26T08:49:07.881Z,3.37
2019-02-26T08:54:00.274Z,3.20
2019-02-26T08:59:03.605Z,2.30
2019-02-26T10:01:08.703Z,3.60
2019-02-26T10:06:08.319Z,3.30
2019-02-26T10:11:09.605Z,2.60
2019-02-26T10:16:12.280Z,2.90
2019-02-26T10:21:14.800Z,2.73
2019-02-26T10:26:14.893Z,3.07
2019-02-26T11:34:38.840Z,1.90
2019-02-26T11:39:40.916Z,2.00
2019-02-26T11:44:43.130Z,2.37
2019-02-26T11:49:46.645Z,3.13
2019-02-26T11:54:45.839Z,3.27
2019-02-26T11:59:47.913Z,3.33
2019-02-26T13:01:51.961Z,1.80
2019-02-26T13:06:52.198Z,2.10
2019-02-26T13:12:01.226Z,2.00
2019-02-26T13:16:57.073Z,1.90
2019-02-26T13:22:05.092Z,1.50
2019-02-26T13:26:59.569Z,1.73
2019-02-26T14:35:23.088Z,3.33
2019-02-26T14:40:24.378Z,3.50
2019-02-26T14:45:25.657Z,3.70
2019-02-26T14:50:26.915Z,2.50
2019-02-26T14:55:30.125Z,3.47
2019-02-26T15:00:30.452Z,2.83
2019-02-26T16:02:34.298Z,2.20
2019-02-26T16:07:35.662Z,2.67
2019-02-26T16:12:37.522Z,2.87
2019-02-26T16:17:39.549Z,2.50
2019-02-26T16:22:40.844Z,2.60
2019-02-26T16:27:42.128Z,2.80
2019-02-26T16:32:43.460Z,3.03
2019-02-26T16:37:45.539Z,4.27
2019-02-26T16:42:46.829Z,4.07
2019-02-26T16:47:49.417Z,3.23
2019-02-26T16:52:50.159Z,2.73
2019-02-26T16:57:51.548Z,2.27
2019-02-26T17:02:52.876Z,2.27
2019-02-26T17:08:11.401Z,3.43
2019-02-26T17:13:13.788Z,3.00
2019-02-26T17:18:16.201Z,2.80
2019-02-26T17:23:16.465Z,2.63
2019-02-26T17:28:19.039Z,2.63
2019-02-26T17:33:20.406Z,2.87
2019-02-26T17:38:21.849Z,3.00
2019-02-26T17:43:25.158Z,3.13
2019-02-26T17:48:24.534Z,4.20
2019-02-26T17:53:27.761Z,3.30
2019-02-26T17:58:27.307Z,3.73
2019-02-26T18:03:28.849Z,3.80
2019-02-26T18:08:33.471Z,4.57
2019-02-26T18:13:34.991Z,4.63
2019-02-26T18:18:36.725Z,3.67
2019-02-26T18:23:38.489Z,2.90
2019-02-26T18:28:40.700Z,2.23
2019-02-26T18:33:42.097Z,2.47
2019-02-26T18:38:43.523Z,3.30
2019-02-26T18:43:47.433Z,3.40
2019-02-26T18:48:48.673Z,2.97
2019-02-26T18:53:48.621Z,3.27
2019-02-26T18:58:51.850Z,5.73
2019-02-26T19:03:52.351Z,5.97
2019-02-26T19:08:53.714Z,4.20
2019-02-26T19:13:55.774Z,3.83
2019-02-26T19:18:57.929Z,3.20
2019-02-26T19:23:59.404Z,4.10
2019-02-26T19:29:00.701Z,4.67
2019-02-26T19:34:02.166Z,4.20
2019-02-26T19:39:03.585Z,4.20
2019-02-26T19:44:04.940Z,3.60
2019-02-26T19:49:06.464Z,3.87
2019-02-26T19:54:07.848Z,3.40
2019-02-26T19:59:13.449Z,5.17
2019-02-26T20:04:11.989Z,5.03
2019-02-26T20:09:13.376Z,5.57
2019-02-26T20:14:21.249Z,4.73
2019-02-26T20:19:16.859Z,5.03
2019-02-26T20:24:18.559Z,5.40
2019-02-26T20:29:20.013Z,4.60
2019-02-26T20:34:22.114Z,3.93
2019-02-26T20:39:23.699Z,3.13
2019-02-26T20:44:25.888Z,3.70
2019-02-26T20:49:27.214Z,3.53
2019-02-26T20:54:28.721Z,4.43
2019-02-26T20:59:30.045Z,4.47
2019-02-26T21:04:31.483Z,3.90
2019-02-26T21:09:33.155Z,3.77
2019-02-26T21:14:41.444Z,3.97
2019-02-26T21:19:42.845Z,3.37
2019-02-26T21:24:44.188Z,3.70
2019-02-26T21:29:46.235Z,3.23
2019-02-26T21:34:49.479Z,3.00
2019-02-26T21:40:07.382Z,3.47
2019-02-26T21:45:29.226Z,3.00
2019-02-26T21:50:36.161Z,2.93
2019-02-26T21:55:44.316Z,3.53
2019-02-26T22:00:49.523Z,2.90
2019-02-26T22:06:05.034Z,3.00
2019-02-26T22:11:02.518Z,3.63
2019-02-26T22:16:06.378Z,3.00
2019-02-26T22:21:21.097Z,3.87
2019-02-26T22:26:27.800Z,3.33
2019-02-26T22:31:34.529Z,3.53
2019-02-26T22:36:37.890Z,3.67
2019-02-26T22:41:40.839Z,3.40
2019-02-26T22:46:46.187Z,2.90
2019-02-26T22:51:51.037Z,3.00
2019-02-26T22:56:56.654Z,3.00
2019-02-26T23:33:35.742Z,3.23
2019-02-26T23:38:37.034Z,3.00
2019-02-26T23:43:38.353Z,3.37
2019-02-26T23:48:40.899Z,3.17
2019-02-26T23:53:41.204Z,3.40
2019-02-26T23:58:42.516Z,2.97
